sensor_id;sensor_type;location;lat;lon;timestamp;pressure;altitude;pressure_sealevel;temperature;humidity
14818;BME280;7500;57.698;11.986;2023-02-19T00:00:12;101117.94;;;6.02;100.00
14818;BME280;7500;57.698;11.986;2023-02-19T00:02:40;101078.34;;;5.80;100.00
14818;BME280;7500;57.698;11.986;2023-02-19T00:05:09;101111.06;;;5.98;100.00
14818;BME280;7500;57.698;11.986;2023-02-19T00:07:36;101117.41;;;5.89;100.00
14818;BME280;7500;57.698;11.986;2023-02-19T00:10:03;101119.13;;;5.92;100.00
14818;BME280;7500;57.698;11.986;2023-02-19T00:12:30;101113.91;;;5.90;100.00
14818;BME280;7500;57.698;11.986;2023-02-19T00:14:58;101113.91;;;5.90;100.00
14818;BME280;7500;57.698;11.986;2023-02-19T00:17:25;101110.63;;;5.82;100.00
14818;BME280;7500;57.698;11.986;2023-02-19T00:19:52;101114.94;;;5.83;100.00
14818;BME280;7500;57.698;11.986;2023-02-19T00:22:19;101108.81;;;5.84;100.00
14818;BME280;7500;57.698;11.986;2023-02-19T00:24:47;101119.22;;;5.87;100.00
14818;BME280;7500;57.698;11.986;2023-02-19T00:27:14;101121.09;;;5.82;100.00
14818;BME280;7500;57.698;11.986;2023-02-19T00:29:41;101114.19;;;5.80;100.00
14818;BME280;7500;57.698;11.986;2023-02-19T00:32:09;101111.50;;;5.81;100.00
14818;BME280;7500;57.698;11.986;2023-02-19T00:34:36;101116.72;;;5.83;100.00
14818;BME280;7500;57.698;11.986;2023-02-19T00:37:03;101109.13;;;5.72;100.00
14818;BME280;7500;57.698;11.986;2023-02-19T00:39:30;101120.41;;;5.74;100.00
14818;BME280;7500;57.698;11.986;2023-02-19T00:41:57;101115.13;;;5.77;100.00
14818;BME280;7500;57.698;11.986;2023-02-19T00:44:25;101107.34;;;5.73;100.00
14818;BME280;7500;57.698;11.986;2023-02-19T00:46:52;101110.13;;;5.67;100.00
14818;BME280;7500;57.698;11.986;2023-02-19T00:49:22;101115.34;;;5.67;100.00
14818;BME280;7500;57.698;11.986;2023-02-19T00:51:50;101116.16;;;5.70;100.00
14818;BME280;7500;57.698;11.986;2023-02-19T00:54:18;101111.75;;;5.72;100.00
14818;BME280;7500;57.698;11.986;2023-02-19T00:56:48;101074.00;;;5.46;100.00
14818;BME280;7500;57.698;11.986;2023-02-19T00:59:15;101119.75;;;5.66;100.00
14818;BME280;7500;57.698;11.986;2023-02-19T01:01:43;101117.50;;;5.86;100.00
14818;BME280;7500;57.698;11.986;2023-02-19T01:04:10;101116.19;;;5.69;100.00
14818;BME280;7500;57.698;11.986;2023-02-19T01:06:39;101136.38;;;5.64;100.00
14818;BME280;7500;57.698;11.986;2023-02-19T01:09:06;101115.63;;;5.56;100.00
14818;BME280;7500;57.698;11.986;2023-02-19T01:11:33;101117.41;;;5.56;100.00
14818;BME280;7500;57.698;11.986;2023-02-19T01:14:00;101107.69;;;5.59;100.00
14818;BME280;7500;57.698;11.986;2023-02-19T01:16:28;101102.53;;;5.58;100.00
14818;BME280;7500;57.698;11.986;2023-02-19T01:18:56;101101.69;;;5.56;100.00
14818;BME280;7500;57.698;11.986;2023-02-19T01:21:24;101105.38;;;5.49;100.00
14818;BME280;7500;57.698;11.986;2023-02-19T01:23:54;101119.22;;;5.53;100.00
14818;BME280;7500;57.698;11.986;2023-02-19T01:26:23;101108.81;;;5.51;100.00
14818;BME280;7500;57.698;11.986;2023-02-19T01:28:51;101111.63;;;5.44;100.00
14818;BME280;7500;57.698;11.986;2023-02-19T01:31:19;101116.75;;;5.47;100.00
14818;BME280;7500;57.698;11.986;2023-02-19T01:33:49;101121.91;;;5.50;100.00
14818;BME280;7500;57.698;11.986;2023-02-19T01:36:16;101123.63;;;5.51;100.00
14818;BME280;7500;57.698;11.986;2023-02-19T01:38:44;101124.66;;;5.45;100.00
14818;BME280;7500;57.698;11.986;2023-02-19T01:41:14;101120.28;;;5.46;100.00
14818;BME280;7500;57.698;11.986;2023-02-19T01:44:02;101128.88;;;5.51;100.00
14818;BME280;7500;57.698;11.986;2023-02-19T01:46:30;101130.59;;;5.52;100.00
14818;BME280;7500;57.698;11.986;2023-02-19T01:49:01;101128.03;;;5.50;100.00
14818;BME280;7500;57.698;11.986;2023-02-19T01:51:30;101125.22;;;5.57;100.00
14818;BME280;7500;57.698;11.986;2023-02-19T01:54:00;101119.91;;;5.60;100.00
14818;BME280;7500;57.698;11.986;2023-02-19T01:56:31;101126.19;;;5.53;100.00
14818;BME280;7500;57.698;11.986;2023-02-19T01:58:59;101125.22;;;5.57;100.00
14818;BME280;7500;57.698;11.986;2023-02-19T02:01:26;101117.97;;;5.34;100.00
14818;BME280;7500;57.698;11.986;2023-02-19T02:03:53;101138.03;;;5.35;100.00
14818;BME280;7500;57.698;11.986;2023-02-19T02:06:22;101140.50;;;5.39;100.00
14818;BME280;7500;57.698;11.986;2023-02-19T02:08:51;101136.25;;;5.35;100.00
14818;BME280;7500;57.698;11.986;2023-02-19T02:11:39;101124.47;;;5.53;100.00
14818;BME280;7500;57.698;11.986;2023-02-19T02:14:08;101126.59;;;5.37;100.00
14818;BME280;7500;57.698;11.986;2023-02-19T02:16:41;101137.06;;;5.39;100.00
14818;BME280;7500;57.698;11.986;2023-02-19T02:19:23;101142.38;;;5.34;100.00
14818;BME280;7500;57.698;11.986;2023-02-19T02:22:03;101142.50;;;5.30;100.00
14818;BME280;7500;57.698;11.986;2023-02-19T02:28:09;101153.03;;;5.27;100.00
14818;BME280;7500;57.698;11.986;2023-02-19T02:30:41;101146.03;;;5.27;100.00
14818;BME280;7500;57.698;11.986;2023-02-19T02:33:19;101147.53;;;5.37;100.00
14818;BME280;7500;57.698;11.986;2023-02-19T02:35:49;101155.44;;;5.36;100.00
14818;BME280;7500;57.698;11.986;2023-02-19T02:38:20;101149.41;;;5.32;100.00
14818;BME280;7500;57.698;11.986;2023-02-19T02:40:50;101146.75;;;5.34;100.00
14818;BME280;7500;57.698;11.986;2023-02-19T02:43:17;101152.06;;;5.31;100.00
14818;BME280;7500;57.698;11.986;2023-02-19T02:45:46;101161.66;;;5.32;100.00
14818;BME280;7500;57.698;11.986;2023-02-19T02:48:26;101161.03;;;5.21;100.00
14818;BME280;7500;57.698;11.986;2023-02-19T02:50:57;101168.94;;;5.19;100.00
14818;BME280;7500;57.698;11.986;2023-02-19T02:53:28;101168.03;;;5.19;100.00
14818;BME280;7500;57.698;11.986;2023-02-19T02:56:16;101172.44;;;5.18;100.00
14818;BME280;7500;57.698;11.986;2023-02-19T02:58:45;101178.31;;;5.28;100.00
14818;BME280;7500;57.698;11.986;2023-02-19T03:01:18;101181.06;;;5.22;100.00
14818;BME280;7500;57.698;11.986;2023-02-19T03:04:08;101172.59;;;5.11;100.00
14818;BME280;7500;57.698;11.986;2023-02-19T03:06:37;101180.50;;;5.09;100.00
14818;BME280;7500;57.698;11.986;2023-02-19T03:09:09;101182.31;;;5.06;100.00
14818;BME280;7500;57.698;11.986;2023-02-19T03:11:39;101163.31;;;4.96;100.00
14818;BME280;7500;57.698;11.986;2023-02-19T03:14:28;101193.56;;;5.09;100.00
14818;BME280;7500;57.698;11.986;2023-02-19T03:17:18;101187.75;;;4.97;100.00
14818;BME280;7500;57.698;11.986;2023-02-19T03:20:09;101202.72;;;4.90;100.00
14818;BME280;7500;57.698;11.986;2023-02-19T03:22:37;101193.09;;;4.91;100.00
14818;BME280;7500;57.698;11.986;2023-02-19T03:25:09;101212.28;;;4.91;100.00
14818;BME280;7500;57.698;11.986;2023-02-19T03:27:56;101209.75;;;4.88;100.00
14818;BME280;7500;57.698;11.986;2023-02-19T03:30:29;101209.59;;;4.94;100.00
14818;BME280;7500;57.698;11.986;2023-02-19T03:33:00;101202.50;;;4.99;100.00
14818;BME280;7500;57.698;11.986;2023-02-19T03:35:30;101207.66;;;5.04;100.00
14818;BME280;7500;57.698;11.986;2023-02-19T03:38:02;101219.09;;;5.00;100.00
14818;BME280;7500;57.698;11.986;2023-02-19T03:40:36;101213.88;;;4.98;100.00
14818;BME280;7500;57.698;11.986;2023-02-19T03:43:12;101220.88;;;4.96;100.00
14818;BME280;7500;57.698;11.986;2023-02-19T03:45:46;101229.72;;;4.92;100.00
14818;BME280;7500;57.698;11.986;2023-02-19T03:48:23;101232.34;;;4.92;100.00
14818;BME280;7500;57.698;11.986;2023-02-19T03:51:01;101235.91;;;4.88;100.00
14818;BME280;7500;57.698;11.986;2023-02-19T03:53:32;101231.41;;;4.93;100.00
14818;BME280;7500;57.698;11.986;2023-02-19T03:56:07;101238.38;;;4.94;100.00
14818;BME280;7500;57.698;11.986;2023-02-19T03:58:43;101240.13;;;4.94;100.00
14818;BME280;7500;57.698;11.986;2023-02-19T04:01:18;101232.19;;;4.98;100.00
14818;BME280;7500;57.698;11.986;2023-02-19T04:03:51;101234.78;;;5.00;100.00
14818;BME280;7500;57.698;11.986;2023-02-19T04:06:24;101232.94;;;5.03;100.00
14818;BME280;7500;57.698;11.986;2023-02-19T04:08:55;101236.47;;;5.02;100.00
14818;BME280;7500;57.698;11.986;2023-02-19T04:11:24;101240.78;;;5.05;100.00
14818;BME280;7500;57.698;11.986;2023-02-19T04:13:55;101242.50;;;5.06;100.00
14818;BME280;7500;57.698;11.986;2023-02-19T04:16:27;101240.78;;;5.05;100.00
14818;BME280;7500;57.698;11.986;2023-02-19T04:18:58;101247.69;;;5.09;100.00
14818;BME280;7500;57.698;11.986;2023-02-19T04:21:29;101253.72;;;5.11;100.00
14818;BME280;7500;57.698;11.986;2023-02-19T04:23:58;101253.72;;;5.11;100.00
14818;BME280;7500;57.698;11.986;2023-02-19T04:26:28;101256.31;;;5.11;100.00
14818;BME280;7500;57.698;11.986;2023-02-19T04:28:57;101257.25;;;5.10;100.00
14818;BME280;7500;57.698;11.986;2023-02-19T04:31:25;101257.31;;;5.07;100.00
14818;BME280;7500;57.698;11.986;2023-02-19T04:33:53;101272.94;;;5.10;100.00
14818;BME280;7500;57.698;11.986;2023-02-19T04:36:21;101279.13;;;5.06;100.00
14818;BME280;7500;57.698;11.986;2023-02-19T04:38:48;101283.66;;;4.98;100.00
14818;BME280;7500;57.698;11.986;2023-02-19T04:41:15;101282.84;;;4.94;100.00
14818;BME280;7500;57.698;11.986;2023-02-19T04:43:42;101285.94;;;4.72;100.00
14818;BME280;7500;57.698;11.986;2023-02-19T04:46:09;101284.38;;;4.60;100.00
14818;BME280;7500;57.698;11.986;2023-02-19T04:48:36;101292.38;;;4.54;100.00
14818;BME280;7500;57.698;11.986;2023-02-19T04:51:04;101295.88;;;4.52;100.00
14818;BME280;7500;57.698;11.986;2023-02-19T04:53:33;101296.03;;;4.43;100.00
14818;BME280;7500;57.698;11.986;2023-02-19T04:56:05;101300.38;;;4.44;100.00
14818;BME280;7500;57.698;11.986;2023-02-19T04:58:32;101297.56;;;4.56;100.00
14818;BME280;7500;57.698;11.986;2023-02-19T05:00:59;101300.97;;;4.59;100.00
14818;BME280;7500;57.698;11.986;2023-02-19T05:03:26;101304.34;;;4.64;100.00
14818;BME280;7500;57.698;11.986;2023-02-19T05:05:53;101309.59;;;4.64;100.00
14818;BME280;7500;57.698;11.986;2023-02-19T05:08:20;101316.63;;;4.61;100.00
14818;BME280;7500;57.698;11.986;2023-02-19T05:10:48;101321.03;;;4.59;100.00
14818;BME280;7500;57.698;11.986;2023-02-19T05:13:15;101326.25;;;4.59;100.00
14818;BME280;7500;57.698;11.986;2023-02-19T05:15:42;101323.59;;;4.62;100.00
14818;BME280;7500;57.698;11.986;2023-02-19T05:18:08;101326.31;;;4.57;100.00
14818;BME280;7500;57.698;11.986;2023-02-19T05:20:35;101325.38;;;4.60;100.00
14818;BME280;7500;57.698;11.986;2023-02-19T05:23:03;101322.75;;;4.60;100.00
14818;BME280;7500;57.698;11.986;2023-02-19T05:25:29;101332.28;;;4.64;100.00
14818;BME280;7500;57.698;11.986;2023-02-19T05:27:58;101333.16;;;4.63;100.00
14818;BME280;7500;57.698;11.986;2023-02-19T05:30:38;101329.66;;;4.64;100.00
14818;BME280;7500;57.698;11.986;2023-02-19T05:33:05;101335.78;;;4.63;100.00
14818;BME280;7500;57.698;11.986;2023-02-19T05:35:32;101327.84;;;4.69;100.00
14818;BME280;7500;57.698;11.986;2023-02-19T05:37:59;101339.22;;;4.65;100.00
14818;BME280;7500;57.698;11.986;2023-02-19T05:40:25;101335.72;;;4.66;100.00
14818;BME280;7500;57.698;11.986;2023-02-19T05:42:52;101336.63;;;4.65;100.00
14818;BME280;7500;57.698;11.986;2023-02-19T05:45:20;101348.84;;;4.63;100.00
14818;BME280;7500;57.698;11.986;2023-02-19T05:47:47;101348.84;;;4.63;100.00
14818;BME280;7500;57.698;11.986;2023-02-19T05:50:14;101357.69;;;4.57;100.00
14818;BME280;7500;57.698;11.986;2023-02-19T05:52:41;101363.91;;;4.50;100.00
14818;BME280;7500;57.698;11.986;2023-02-19T05:55:08;101371.69;;;4.52;100.00
14818;BME280;7500;57.698;11.986;2023-02-19T05:57:39;101368.28;;;4.48;100.00
14818;BME280;7500;57.698;11.986;2023-02-19T06:00:08;101370.19;;;4.39;100.00
14818;BME280;7500;57.698;11.986;2023-02-19T06:02:36;101376.41;;;4.32;100.00
14818;BME280;7500;57.698;11.986;2023-02-19T06:05:04;101385.97;;;4.33;100.00
14818;BME280;7500;57.698;11.986;2023-02-19T06:07:31;101386.88;;;4.32;100.00
14818;BME280;7500;57.698;11.986;2023-02-19T06:09:59;101390.41;;;4.28;100.00
14818;BME280;7500;57.698;11.986;2023-02-19T06:12:25;101387.81;;;4.27;100.00
14818;BME280;7500;57.698;11.986;2023-02-19T06:14:52;101397.44;;;4.25;100.00
14818;BME280;7500;57.698;11.986;2023-02-19T06:17:19;101391.44;;;4.18;100.00
14818;BME280;7500;57.698;11.986;2023-02-19T06:19:47;101398.50;;;4.10;100.00
14818;BME280;7500;57.698;11.986;2023-02-19T06:22:14;101396.94;;;4.00;100.00
14818;BME280;7500;57.698;11.986;2023-02-19T06:24:41;101391.00;;;3.91;100.00
14818;BME280;7500;57.698;11.986;2023-02-19T06:27:09;101394.56;;;3.84;100.00
14818;BME280;7500;57.698;11.986;2023-02-19T06:29:36;101403.25;;;3.84;100.00
14818;BME280;7500;57.698;11.986;2023-02-19T06:32:03;101408.47;;;3.86;100.00
14818;BME280;7500;57.698;11.986;2023-02-19T06:34:30;101366.06;;;3.67;100.00
14818;BME280;7500;57.698;11.986;2023-02-19T06:36:59;101408.31;;;3.95;100.00
14818;BME280;7500;57.698;11.986;2023-02-19T06:39:26;101406.56;;;3.97;100.00
14818;BME280;7500;57.698;11.986;2023-02-19T06:41:54;101414.38;;;3.98;100.00
14818;BME280;7500;57.698;11.986;2023-02-19T06:44:21;101414.34;;;4.01;100.00
14818;BME280;7500;57.698;11.986;2023-02-19T06:46:48;101415.19;;;4.03;100.00
14818;BME280;7500;57.698;11.986;2023-02-19T06:49:15;101404.75;;;4.03;100.00
14818;BME280;7500;57.698;11.986;2023-02-19T06:51:42;101393.41;;;4.04;100.00
14818;BME280;7500;57.698;11.986;2023-02-19T06:54:10;101413.38;;;4.07;100.00
14818;BME280;7500;57.698;11.986;2023-02-19T06:56:38;101405.50;;;4.08;100.00
14818;BME280;7500;57.698;11.986;2023-02-19T06:59:08;101418.53;;;4.11;100.00
14818;BME280;7500;57.698;11.986;2023-02-19T07:01:37;101408.00;;;4.17;100.00
14818;BME280;7500;57.698;11.986;2023-02-19T07:04:05;101428.84;;;4.20;100.00
14818;BME280;7500;57.698;11.986;2023-02-19T07:06:33;101419.41;;;4.12;100.00
14818;BME280;7500;57.698;11.986;2023-02-19T07:09:01;101411.72;;;4.01;100.00
14818;BME280;7500;57.698;11.986;2023-02-19T07:11:31;101423.06;;;4.00;100.00
14818;BME280;7500;57.698;11.986;2023-02-19T07:13:59;101417.91;;;3.93;100.00
14818;BME280;7500;57.698;11.986;2023-02-19T07:16:27;101425.75;;;3.94;100.00
14818;BME280;7500;57.698;11.986;2023-02-19T07:18:55;101442.28;;;3.96;100.00
14818;BME280;7500;57.698;11.986;2023-02-19T07:21:22;101443.16;;;3.95;100.00
14818;BME280;7500;57.698;11.986;2023-02-19T07:23:49;101371.34;;;3.63;100.00
14818;BME280;7500;57.698;11.986;2023-02-19T07:26:17;101438.66;;;4.06;100.00
14818;BME280;7500;57.698;11.986;2023-02-19T07:28:47;101430.00;;;4.01;100.00
14818;BME280;7500;57.698;11.986;2023-02-19T07:31:15;101443.13;;;3.97;100.00
14818;BME280;7500;57.698;11.986;2023-02-19T07:33:42;101453.56;;;3.98;100.00
14818;BME280;7500;57.698;11.986;2023-02-19T07:36:10;101446.38;;;4.14;100.00
14818;BME280;7500;57.698;11.986;2023-02-19T07:38:37;101432.31;;;4.24;100.00
14818;BME280;7500;57.698;11.986;2023-02-19T07:41:05;101446.06;;;4.36;100.00
14818;BME280;7500;57.698;11.986;2023-02-19T07:43:33;101449.38;;;4.44;100.00
14818;BME280;7500;57.698;11.986;2023-02-19T07:46:03;101440.56;;;4.52;100.00
14818;BME280;7500;57.698;11.986;2023-02-19T07:48:30;101444.72;;;4.62;100.00
14818;BME280;7500;57.698;11.986;2023-02-19T07:51:01;101444.69;;;4.65;100.00
14818;BME280;7500;57.698;11.986;2023-02-19T07:53:29;101437.00;;;4.55;100.00
14818;BME280;7500;57.698;11.986;2023-02-19T07:55:58;101441.19;;;4.66;100.00
14818;BME280;7500;57.698;11.986;2023-02-19T07:58:26;101428.94;;;4.68;100.00
14818;BME280;7500;57.698;11.986;2023-02-19T08:01:08;101465.13;;;4.94;100.00
14818;BME280;7500;57.698;11.986;2023-02-19T08:03:36;101467.56;;;5.04;100.00
14818;BME280;7500;57.698;11.986;2023-02-19T08:06:03;101470.91;;;5.12;100.00
14818;BME280;7500;57.698;11.986;2023-02-19T08:08:29;101471.66;;;5.19;100.00
14818;BME280;7500;57.698;11.986;2023-02-19T08:10:59;101464.63;;;5.21;100.00
14818;BME280;7500;57.698;11.986;2023-02-19T08:13:43;101474.94;;;5.30;100.00
14818;BME280;7500;57.698;11.986;2023-02-19T08:16:13;101474.94;;;5.30;100.00
14818;BME280;7500;57.698;11.986;2023-02-19T08:18:42;101481.88;;;5.32;100.00
14818;BME280;7500;57.698;11.986;2023-02-19T08:21:09;101471.34;;;5.35;100.00
14818;BME280;7500;57.698;11.986;2023-02-19T08:23:36;101469.66;;;5.31;100.00
14818;BME280;7500;57.698;11.986;2023-02-19T08:26:04;101474.97;;;5.28;100.00
14818;BME280;7500;57.698;11.986;2023-02-19T08:28:31;101473.31;;;5.24;100.00
14818;BME280;7500;57.698;11.986;2023-02-19T08:30:59;101481.16;;;5.24;100.00
14818;BME280;7500;57.698;11.986;2023-02-19T08:33:29;101489.03;;;5.23;100.00
14818;BME280;7500;57.698;11.986;2023-02-19T08:35:56;101480.50;;;5.12;100.00
14818;BME280;7500;57.698;11.986;2023-02-19T08:38:23;101485.47;;;5.27;100.00
14818;BME280;7500;57.698;11.986;2023-02-19T08:40:50;101497.56;;;5.32;100.00
14818;BME280;7500;57.698;11.986;2023-02-19T08:43:17;101502.75;;;5.35;100.00
14818;BME280;7500;57.698;11.986;2023-02-19T08:45:44;101506.22;;;5.39;100.00
14818;BME280;7500;57.698;11.986;2023-02-19T08:48:13;101500.97;;;5.39;100.00
14818;BME280;7500;57.698;11.986;2023-02-19T08:50:42;101479.28;;;5.31;100.00
14818;BME280;7500;57.698;11.986;2023-02-19T08:53:08;101512.03;;;5.54;100.00
14818;BME280;7500;57.698;11.986;2023-02-19T08:55:36;101512.91;;;5.53;100.00
14818;BME280;7500;57.698;11.986;2023-02-19T08:58:04;101507.69;;;5.53;100.00
14818;BME280;7500;57.698;11.986;2023-02-19T09:00:31;101513.81;;;5.52;100.00
14818;BME280;7500;57.698;11.986;2023-02-19T09:02:58;101507.53;;;5.60;100.00
14818;BME280;7500;57.698;11.986;2023-02-19T09:05:25;101510.97;;;5.62;100.00
14818;BME280;7500;57.698;11.986;2023-02-19T09:07:53;101512.66;;;5.66;100.00
14818;BME280;7500;57.698;11.986;2023-02-19T09:10:20;101511.72;;;5.69;100.00
14818;BME280;7500;57.698;11.986;2023-02-19T09:12:47;101514.28;;;5.72;100.00
14818;BME280;7500;57.698;11.986;2023-02-19T09:15:14;101503.56;;;5.85;100.00
14818;BME280;7500;57.698;11.986;2023-02-19T09:17:41;101515.13;;;6.16;100.00
14818;BME280;7500;57.698;11.986;2023-02-19T09:20:08;101516.41;;;6.37;100.00
14818;BME280;7500;57.698;11.986;2023-02-19T09:22:35;101506.59;;;6.46;100.00
14818;BME280;7500;57.698;11.986;2023-02-19T09:25:04;101522.75;;;6.66;100.00
14818;BME280;7500;57.698;11.986;2023-02-19T09:27:31;101519.03;;;6.76;100.00
14818;BME280;7500;57.698;11.986;2023-02-19T09:29:58;101525.69;;;6.89;100.00
14818;BME280;7500;57.698;11.986;2023-02-19T09:32:25;101537.00;;;6.91;100.00
14818;BME280;7500;57.698;11.986;2023-02-19T09:34:55;101531.56;;;6.98;100.00
14818;BME280;7500;57.698;11.986;2023-02-19T09:37:24;101514.19;;;6.94;100.00
14818;BME280;7500;57.698;11.986;2023-02-19T09:39:52;101515.81;;;6.98;100.00
14818;BME280;7500;57.698;11.986;2023-02-19T09:42:23;101529.75;;;7.02;100.00
14818;BME280;7500;57.698;11.986;2023-02-19T09:44:52;101529.75;;;7.02;100.00
14818;BME280;7500;57.698;11.986;2023-02-19T09:47:20;101523.53;;;7.04;100.00
14818;BME280;7500;57.698;11.986;2023-02-19T09:49:49;101532.09;;;7.12;100.00
14818;BME280;7500;57.698;11.986;2023-02-19T09:52:23;101530.38;;;7.11;100.00
14818;BME280;7500;57.698;11.986;2023-02-19T09:54:56;101539.38;;;7.01;100.00
14818;BME280;7500;57.698;11.986;2023-02-19T09:57:29;101527.38;;;6.91;100.00
14818;BME280;7500;57.698;11.986;2023-02-19T10:00:02;101546.47;;;6.98;100.00
14818;BME280;7500;57.698;11.986;2023-02-19T10:02:30;101551.97;;;6.87;100.00
14818;BME280;7500;57.698;11.986;2023-02-19T10:04:57;101549.38;;;6.86;100.00
14818;BME280;7500;57.698;11.986;2023-02-19T10:07:25;101554.69;;;6.84;100.00
14818;BME280;7500;57.698;11.986;2023-02-19T10:09:56;101569.53;;;6.84;100.00
14818;BME280;7500;57.698;11.986;2023-02-19T10:12:28;101565.09;;;6.87;100.00
14818;BME280;7500;57.698;11.986;2023-02-19T10:14:59;101563.34;;;7.23;100.00
14818;BME280;7500;57.698;11.986;2023-02-19T10:17:29;101559.25;;;7.11;100.00
14818;BME280;7500;57.698;11.986;2023-02-19T10:19:59;101570.84;;;7.03;100.00
14818;BME280;7500;57.698;11.986;2023-02-19T10:22:28;101574.16;;;6.74;100.00
14818;BME280;7500;57.698;11.986;2023-02-19T10:24:55;101569.72;;;6.78;100.00
14818;BME280;7500;57.698;11.986;2023-02-19T10:27:26;101561.34;;;6.97;100.00
14818;BME280;7500;57.698;11.986;2023-02-19T10:29:55;101567.28;;;7.40;100.00
14818;BME280;7500;57.698;11.986;2023-02-19T10:32:25;101569.22;;;7.32;100.00
14818;BME280;7500;57.698;11.986;2023-02-19T10:35:09;101563.25;;;7.27;100.00
14818;BME280;7500;57.698;11.986;2023-02-19T10:37:41;101555.88;;;7.41;100.00
14818;BME280;7500;57.698;11.986;2023-02-19T10:40:15;101557.16;;;7.59;100.00
14818;BME280;7500;57.698;11.986;2023-02-19T10:42:46;101569.63;;;7.82;100.00
14818;BME280;7500;57.698;11.986;2023-02-19T10:45:18;101574.41;;;8.00;100.00
14818;BME280;7500;57.698;11.986;2023-02-19T10:47:46;101562.81;;;8.07;100.00
14818;BME280;7500;57.698;11.986;2023-02-19T10:50:21;101564.19;;;7.90;100.00
14818;BME280;7500;57.698;11.986;2023-02-19T10:52:52;101559.03;;;7.85;100.00
14818;BME280;7500;57.698;11.986;2023-02-19T10:55:26;101554.78;;;7.82;100.00
14818;BME280;7500;57.698;11.986;2023-02-19T10:57:55;101572.75;;;7.98;100.00
14818;BME280;7500;57.698;11.986;2023-02-19T11:00:24;101562.91;;;8.04;100.00
14818;BME280;7500;57.698;11.986;2023-02-19T11:03:13;101564.38;;;8.14;100.00
14818;BME280;7500;57.698;11.986;2023-02-19T11:05:50;101559.84;;;8.19;100.00
14818;BME280;7500;57.698;11.986;2023-02-19T11:08:21;101560.38;;;8.32;100.00
14818;BME280;7500;57.698;11.986;2023-02-19T11:10:49;101561.97;;;8.37;100.00
14818;BME280;7500;57.698;11.986;2023-02-19T11:13:24;101559.41;;;8.34;100.00
14818;BME280;7500;57.698;11.986;2023-02-19T11:15:54;101548.16;;;8.29;100.00
14818;BME280;7500;57.698;11.986;2023-02-19T11:18:22;101555.22;;;8.27;100.00
14818;BME280;7500;57.698;11.986;2023-02-19T11:20:52;101549.25;;;8.22;100.00
14818;BME280;7500;57.698;11.986;2023-02-19T11:23:22;101548.16;;;8.29;100.00
14818;BME280;7500;57.698;11.986;2023-02-19T11:25:51;101548.06;;;8.32;100.00
14818;BME280;7500;57.698;11.986;2023-02-19T11:28:31;101554.97;;;8.36;100.00
14818;BME280;7500;57.698;11.986;2023-02-19T11:31:22;101553.91;;;8.42;100.00
14818;BME280;7500;57.698;11.986;2023-02-19T11:33:55;101555.88;;;8.35;100.00
14818;BME280;7500;57.698;11.986;2023-02-19T11:36:30;101554.06;;;8.37;100.00
14818;BME280;7500;57.698;11.986;2023-02-19T11:39:18;101558.44;;;8.38;100.00
14818;BME280;7500;57.698;11.986;2023-02-19T11:42:23;101551.47;;;8.36;100.00
14818;BME280;7500;57.698;11.986;2023-02-19T11:48:03;101545.84;;;8.19;100.00
14818;BME280;7500;57.698;11.986;2023-02-19T11:50:45;101540.06;;;8.06;100.00
14818;BME280;7500;57.698;11.986;2023-02-19T11:53:21;101544.66;;;7.98;100.00
14818;BME280;7500;57.698;11.986;2023-02-19T11:55:57;101543.69;;;8.01;100.00
14818;BME280;7500;57.698;11.986;2023-02-19T11:58:57;101549.84;;;8.00;100.00
14818;BME280;7500;57.698;11.986;2023-02-19T12:01:43;101543.25;;;7.87;100.00
14818;BME280;7500;57.698;11.986;2023-02-19T12:08:04;101533.06;;;8.05;100.00
14818;BME280;7500;57.698;11.986;2023-02-19T12:10:48;101519.84;;;8.08;100.00
14818;BME280;7500;57.698;11.986;2023-02-19T12:13:23;101514.00;;;7.97;100.00
14818;BME280;7500;57.698;11.986;2023-02-19T12:16:05;101511.59;;;7.90;100.00
14818;BME280;7500;57.698;11.986;2023-02-19T12:19:08;101515.66;;;8.01;100.00
14818;BME280;7500;57.698;11.986;2023-02-19T12:21:57;101519.28;;;7.97;100.00
14818;BME280;7500;57.698;11.986;2023-02-19T12:24:49;101520.16;;;7.96;100.00
14818;BME280;7500;57.698;11.986;2023-02-19T12:27:31;101514.25;;;7.90;100.00
14818;BME280;7500;57.698;11.986;2023-02-19T12:30:15;101502.31;;;7.79;100.00
14818;BME280;7500;57.698;11.986;2023-02-19T12:33:02;101510.00;;;7.84;100.00
14818;BME280;7500;57.698;11.986;2023-02-19T12:35:42;101511.59;;;7.90;100.00
14818;BME280;7500;57.698;11.986;2023-02-19T12:38:21;101525.69;;;7.87;100.00
14818;BME280;7500;57.698;11.986;2023-02-19T12:41:13;101510.66;;;7.92;100.00
14818;BME280;7500;57.698;11.986;2023-02-19T12:43:49;101500.44;;;7.82;100.00
14818;BME280;7500;57.698;11.986;2023-02-19T12:46:19;101503.56;;;7.94;100.00
14818;BME280;7500;57.698;11.986;2023-02-19T12:48:51;101506.75;;;7.77;100.00
14818;BME280;7500;57.698;11.986;2023-02-19T12:51:25;101491.22;;;7.68;100.00
14818;BME280;7500;57.698;11.986;2023-02-19T12:53:55;101488.63;;;7.66;100.00
14818;BME280;7500;57.698;11.986;2023-02-19T12:56:28;101477.41;;;7.60;100.00
14818;BME280;7500;57.698;11.986;2023-02-19T12:58:59;101479.28;;;7.56;100.00
14818;BME280;7500;57.698;11.986;2023-02-19T13:01:31;101446.00;;;7.25;100.00
14818;BME280;7500;57.698;11.986;2023-02-19T13:04:13;101488.69;;;7.31;100.00
14818;BME280;7500;57.698;11.986;2023-02-19T13:06:48;101474.66;;;7.32;100.00
14818;BME280;7500;57.698;11.986;2023-02-19T13:09:21;101465.03;;;7.33;100.00
14818;BME280;7500;57.698;11.986;2023-02-19T13:11:55;101448.25;;;7.38;100.00
14818;BME280;7500;57.698;11.986;2023-02-19T13:14:27;101433.09;;;7.48;100.00
14818;BME280;7500;57.698;11.986;2023-02-19T13:16:59;101443.94;;;7.36;100.00
14818;BME280;7500;57.698;11.986;2023-02-19T13:19:27;101447.88;;;7.20;100.00